Time;durP1;ratioP1;P1;durP2;ratioP2;P2;SDS_P1;SDS_P2;PMS_P1;PMS_P2;Temp;Humidity;BMP_temperature;BMP_pressure;BME280_temperature;BME280_humidity;BME280_pressure;Samples;Min_cycle;Max_cycle;Signal;HPM_P1;HPM_P2
2022/01/15 00:02:34;;;;;;;10.27;2.47;;;;;;;4.65;100.00;103112.28;15267202;19;20103;-68
2022/01/15 00:07:36;;;;;;;15.20;3.88;;;;;;;4.68;100.00;103109.91;15265461;19;20070;-67
2022/01/15 00:12:40;;;;;;;8.65;3.25;;;;;;;4.68;100.00;103107.31;15264190;19;20014;-68
2022/01/15 00:17:57;;;;;;;11.95;3.17;;;;;;;4.66;100.00;103097.63;15280837;19;20514;-68
2022/01/15 00:22:59;;;;;;;8.48;3.15;;;;;;;4.55;100.00;103081.22;15278668;19;20632;-68
2022/01/15 00:28:02;;;;;;;11.75;3.50;;;;;;;4.48;100.00;103085.00;15280286;19;20013;-68
2022/01/15 00:33:04;;;;;;;10.68;3.00;;;;;;;4.40;100.00;103081.81;15275799;19;20046;-68
2022/01/15 00:38:05;;;;;;;9.50;3.13;;;;;;;4.34;100.00;103081.34;15277602;19;20018;-68
2022/01/15 00:43:07;;;;;;;9.98;3.00;;;;;;;4.37;100.00;103080.69;15277646;19;20507;-67
2022/01/15 00:48:09;;;;;;;10.07;2.88;;;;;;;4.35;100.00;103095.19;15276223;19;20028;-68
2022/01/15 00:53:10;;;;;;;10.20;2.97;;;;;;;4.34;100.00;103081.34;15275694;19;20019;-68
2022/01/15 00:58:13;;;;;;;9.07;3.60;;;;;;;4.25;100.00;103070.22;15276174;19;20014;-68
2022/01/15 01:03:14;;;;;;;10.88;3.28;;;;;;;4.21;100.00;103061.28;15275622;19;20487;-68
2022/01/15 01:08:16;;;;;;;8.30;3.30;;;;;;;4.22;100.00;103070.00;15274913;19;20038;-68
2022/01/15 01:24:06;;;;;;;12.15;3.28;;;;;;;4.12;100.00;103051.88;15273346;19;20010;-69
2022/01/15 01:34:13;;;;;;;10.25;3.30;;;;;;;4.03;100.00;103036.50;15274710;19;20357;-68
2022/01/15 01:39:19;;;;;;;13.85;3.90;;;;;;;4.01;100.00;103038.06;15270944;19;20015;-68
2022/01/15 01:44:24;;;;;;;15.40;3.45;;;;;;;3.98;100.00;103017.06;15271811;19;20429;-68
2022/01/15 01:49:26;;;;;;;24.23;3.83;;;;;;;3.85;100.00;103028.16;15270282;19;20086;-68
2022/01/15 01:54:27;;;;;;;8.88;2.83;;;;;;;3.85;100.00;103016.09;15272427;19;20417;-67
2022/01/15 01:59:30;;;;;;;18.38;3.45;;;;;;;3.76;100.00;103020.53;15270570;19;20086;-68
2022/01/15 02:04:32;;;;;;;13.70;3.40;;;;;;;3.80;100.00;103021.66;15272238;19;20018;-67
2022/01/15 02:09:35;;;;;;;11.68;3.00;;;;;;;3.79;100.00;103014.69;15269174;19;20014;-67
2022/01/15 02:14:36;;;;;;;12.52;3.33;;;;;;;3.76;100.00;103024.81;15269875;19;20086;-68
2022/01/15 02:19:56;;;;;;;11.65;2.72;;;;;;;3.77;100.00;103013.66;15267974;19;20006;-68
2022/01/15 02:24:58;;;;;;;11.18;3.45;;;;;;;3.82;100.00;103010.66;15269465;19;20010;-68
2022/01/15 02:30:03;;;;;;;16.08;3.28;;;;;;;3.87;100.00;102987.69;15268875;19;20027;-68
2022/01/15 02:35:06;;;;;;;12.80;3.30;;;;;;;3.81;100.00;102997.56;15270900;19;20017;-68
2022/01/15 02:40:10;;;;;;;17.58;6.15;;;;;;;3.84;100.00;102983.19;15264894;19;20026;-68
2022/01/15 02:45:19;;;;;;;13.75;3.33;;;;;;;3.77;100.00;102959.22;15268948;19;20039;-68
2022/01/15 02:50:22;;;;;;;18.90;3.83;;;;;;;3.79;100.00;102957.69;15268689;19;20021;-67
2022/01/15 02:55:23;;;;;;;9.38;3.67;;;;;;;3.78;100.00;102963.66;15268755;19;20094;-68
2022/01/15 03:00:26;;;;;;;12.95;4.35;;;;;;;3.82;100.00;102968.28;15266628;19;20013;-66
2022/01/15 03:05:28;;;;;;;9.13;3.72;;;;;;;3.80;100.00;102955.22;15268842;19;20015;-68
2022/01/15 03:10:30;;;;;;;10.30;4.03;;;;;;;3.78;100.00;102961.06;15265905;19;20081;-68
2022/01/15 03:15:33;;;;;;;12.43;4.22;;;;;;;3.73;100.00;102947.72;15268284;19;20037;-67
2022/01/15 03:20:35;;;;;;;7.25;3.33;;;;;;;3.80;100.00;102954.28;15266172;19;20007;-68
2022/01/15 03:25:36;;;;;;;10.38;3.60;;;;;;;3.80;100.00;102939.66;15267131;19;20027;-68
2022/01/15 03:30:39;;;;;;;13.02;4.85;;;;;;;3.65;100.00;102939.34;15264120;19;20015;-67
2022/01/15 03:35:41;;;;;;;10.27;4.28;;;;;;;3.67;100.00;102935.19;15267060;19;20379;-67
2022/01/15 03:40:43;;;;;;;11.88;4.90;;;;;;;3.71;100.00;102924.28;15264590;19;20022;-68
2022/01/15 03:45:44;;;;;;;12.43;4.43;;;;;;;3.68;100.00;102924.03;15265406;19;20483;-68
2022/01/15 03:50:46;;;;;;;10.05;4.18;;;;;;;3.63;100.00;102924.47;15271937;19;20376;-68
2022/01/15 03:55:48;;;;;;;11.00;4.72;;;;;;;3.63;100.00;102925.34;15280399;19;20794;-68
2022/01/15 04:00:49;;;;;;;10.40;4.10;;;;;;;3.64;100.00;102934.94;15276986;19;20407;-66
2022/01/15 04:05:51;;;;;;;9.10;4.25;;;;;;;3.64;100.00;102941.81;15280848;19;20412;-67
2022/01/15 04:10:53;;;;;;;13.02;4.40;;;;;;;3.62;100.00;102935.59;15276113;19;20015;-67
2022/01/15 04:15:55;;;;;;;11.02;4.20;;;;;;;3.61;100.00;102937.28;15279716;19;20758;-67
2022/01/15 04:20:58;;;;;;;17.60;4.80;;;;;;;3.60;100.00;102930.28;15275639;19;20417;-67
2022/01/15 04:26:00;;;;;;;15.90;4.47;;;;;;;3.56;100.00;102920.50;15278587;19;20029;-68
2022/01/15 04:31:05;;;;;;;9.82;4.32;;;;;;;3.58;100.00;102924.09;15274188;19;20479;-68
2022/01/15 04:36:07;;;;;;;17.08;5.25;;;;;;;3.56;100.00;102925.66;15278057;19;20446;-67
2022/01/15 04:41:09;;;;;;;29.50;5.60;;;;;;;3.44;100.00;102916.88;15273975;19;20492;-67
2022/01/15 04:46:11;;;;;;;15.68;5.00;;;;;;;3.46;100.00;102915.34;15278238;19;20015;-68
2022/01/15 04:51:13;;;;;;;11.77;5.05;;;;;;;3.42;100.00;102928.81;15275267;19;20030;-68
2022/01/15 04:56:14;;;;;;;12.70;5.38;;;;;;;3.45;100.00;102913.53;15276977;19;20081;-67
2022/01/15 05:01:16;;;;;;;12.70;5.45;;;;;;;3.40;100.00;102914.88;15271059;19;20348;-65
2022/01/15 05:06:18;;;;;;;16.92;5.88;;;;;;;3.39;100.00;102918.22;15276186;19;20014;-67
2022/01/15 05:11:29;;;;;;;12.63;5.20;;;;;;;3.50;100.00;102920.91;15271669;19;20089;-67
2022/01/15 05:16:31;;;;;;;13.45;5.63;;;;;;;3.41;100.00;102917.56;15275283;19;20094;-67
2022/01/15 05:21:33;;;;;;;16.83;5.85;;;;;;;3.42;100.00;102908.09;15275671;19;20429;-68
2022/01/15 05:26:35;;;;;;;17.90;6.20;;;;;;;3.38;100.00;102901.78;15274184;19;20090;-67
2022/01/15 05:31:36;;;;;;;14.88;6.10;;;;;;;3.40;100.00;102900.22;15274395;19;20014;-67
2022/01/15 05:36:39;;;;;;;14.90;6.05;;;;;;;3.42;100.00;102897.75;15273855;19;20037;-68
2022/01/15 05:41:41;;;;;;;13.82;6.35;;;;;;;3.44;100.00;102896.16;15274111;19;20078;-68
2022/01/15 05:46:44;;;;;;;15.10;6.20;;;;;;;3.45;100.00;102895.41;15273716;19;20412;-68
2022/01/15 05:51:46;;;;;;;12.52;5.50;;;;;;;3.43;100.00;102895.28;15273885;19;20471;-67
2022/01/15 05:56:47;;;;;;;13.88;5.93;;;;;;;3.35;100.00;102899.84;15271843;19;20026;-67
2022/01/15 06:01:49;;;;;;;12.88;5.50;;;;;;;3.37;100.00;102897.38;15272401;19;20010;-68
2022/01/15 06:06:51;;;;;;;13.65;5.78;;;;;;;3.35;100.00;102897.25;15269884;19;20021;-67
2022/01/15 06:11:56;;;;;;;15.18;6.20;;;;;;;3.35;100.00;102888.59;15271114;19;20062;-67
2022/01/15 06:16:59;;;;;;;11.93;5.82;;;;;;;3.36;100.00;102877.44;15270302;19;20011;-68
2022/01/15 06:22:00;;;;;;;13.48;5.97;;;;;;;3.35;100.00;102892.09;15271382;19;20015;-68
2022/01/15 06:27:03;;;;;;;15.32;5.57;;;;;;;3.37;100.00;102889.63;15269428;19;20018;-67
2022/01/15 06:32:04;;;;;;;17.35;6.32;;;;;;;3.34;100.00;102874.72;15268678;19;20022;-67
2022/01/15 06:37:06;;;;;;;13.90;6.03;;;;;;;3.33;100.00;102887.56;15269310;19;20037;-67
2022/01/15 06:42:08;;;;;;;14.85;6.05;;;;;;;3.31;100.00;102882.25;15270082;19;20023;-68
2022/01/15 06:47:10;;;;;;;12.77;5.55;;;;;;;3.32;100.00;102880.59;15268891;19;20018;-67
2022/01/15 06:52:11;;;;;;;15.20;5.68;;;;;;;3.34;100.00;102892.84;15267162;19;20019;-67
2022/01/15 06:57:13;;;;;;;11.80;5.68;;;;;;;3.31;100.00;102890.00;15267178;19;20026;-68
2022/01/15 07:02:15;;;;;;;12.45;5.50;;;;;;;3.27;100.00;102872.44;15267645;19;20412;-67
2022/01/15 07:07:16;;;;;;;13.23;5.53;;;;;;;3.31;100.00;102873.59;15265669;19;20035;-67
2022/01/15 07:12:18;;;;;;;13.40;5.55;;;;;;;3.28;100.00;102875.94;15262556;19;20010;-68
2022/01/15 07:17:20;;;;;;;12.15;5.45;;;;;;;3.26;100.00;102868.03;15267836;19;20090;-67
2022/01/15 07:22:21;;;;;;;12.15;5.43;;;;;;;3.26;100.00;102864.53;15271351;19;20074;-68
2022/01/15 07:27:23;;;;;;;13.82;5.47;;;;;;;3.22;100.00;102862.50;15279765;19;20023;-67
2022/01/15 07:32:28;;;;;;;12.57;5.22;;;;;;;3.18;100.00;102862.25;15279385;19;20466;-67
2022/01/15 07:37:31;;;;;;;12.05;5.70;;;;;;;3.12;100.00;102855.66;15279696;19;20035;-68
2022/01/15 07:42:38;;;;;;;10.20;4.93;;;;;;;3.09;100.00;102861.53;15279775;19;20022;-68
2022/01/15 07:47:40;;;;;;;12.23;5.50;;;;;;;2.98;100.00;102863.22;15277604;19;20158;-68
2022/01/15 07:52:43;;;;;;;10.55;5.03;;;;;;;3.05;100.00;102853.34;15270819;19;20048;-68
2022/01/15 07:57:45;;;;;;;12.85;5.88;;;;;;;3.05;100.00;102866.28;15278746;19;20025;-68
2022/01/15 08:02:47;;;;;;;13.23;5.72;;;;;;;3.09;100.00;102851.16;15277275;19;20015;-67
2022/01/15 08:07:49;;;;;;;14.45;6.03;;;;;;;3.04;100.00;102867.09;15277964;19;20018;-68
2022/01/15 08:12:51;;;;;;;17.30;5.22;;;;;;;3.11;100.00;102864.22;15279470;19;20082;-68
2022/01/15 08:17:53;;;;;;;12.27;5.70;;;;;;;3.12;100.00;102866.00;15278001;19;20017;-67
2022/01/15 08:22:55;;;;;;;16.38;6.35;;;;;;;3.12;100.00;102868.59;15277689;19;20090;-68
2022/01/15 08:27:56;;;;;;;15.15;6.78;;;;;;;3.18;100.00;102857.06;15277209;19;20105;-68
2022/01/15 08:32:58;;;;;;;13.65;6.28;;;;;;;3.18;100.00;102869.09;15274928;19;20091;-68
2022/01/15 08:38:03;;;;;;;16.15;5.85;;;;;;;3.31;100.00;102866.72;15278192;19;20026;-67
2022/01/15 08:43:05;;;;;;;11.15;5.65;;;;;;;3.33;100.00;102867.75;15282712;19;21065;-67
2022/01/15 08:48:07;;;;;;;10.68;5.40;;;;;;;3.39;100.00;102866.44;15280569;19;20021;-68
2022/01/15 08:53:09;;;;;;;12.07;5.57;;;;;;;3.44;100.00;102872.84;15281597;19;20035;-68
2022/01/15 08:58:10;;;;;;;19.25;5.93;;;;;;;3.54;100.00;102878.00;15282494;19;20077;-68
2022/01/15 09:03:12;;;;;;;12.68;5.35;;;;;;;3.71;100.00;102881.94;15277892;19;20086;-68
2022/01/15 09:08:14;;;;;;;12.68;5.85;;;;;;;3.76;100.00;102869.34;15275444;19;20075;-68
2022/01/15 09:13:15;;;;;;;13.25;5.03;;;;;;;3.87;100.00;102858.09;15272057;19;20434;-66
2022/01/15 09:18:18;;;;;;;10.45;5.40;;;;;;;3.97;100.00;102849.38;15276068;19;20118;-67
2022/01/15 09:23:20;;;;;;;13.00;5.60;;;;;;;4.01;100.00;102841.94;15271953;19;20019;-70
2022/01/15 09:33:41;;;;;;;10.75;5.07;;;;;;;4.21;100.00;102827.00;15270837;19;20094;-68
2022/01/15 09:38:43;;;;;;;16.80;6.32;;;;;;;4.26;100.00;102820.44;15272611;19;20482;-69
2022/01/15 09:43:45;;;;;;;15.52;6.18;;;;;;;4.29;100.00;102818.09;15271883;19;20110;-69
2022/01/15 09:48:47;;;;;;;13.50;5.07;;;;;;;4.42;100.00;102807.84;15269100;19;20015;-68
2022/01/15 09:53:49;;;;;;;13.57;5.78;;;;;;;4.49;100.00;102806.63;15268607;19;20026;-69
2022/01/15 09:58:53;;;;;;;13.38;6.43;;;;;;;4.70;100.00;102802.13;15270749;19;20023;-69
2022/01/15 10:03:56;;;;;;;17.15;7.47;;;;;;;4.73;100.00;102802.34;15269383;19;20082;-69
2022/01/15 10:09:08;;;;;;;16.88;7.43;;;;;;;4.92;100.00;102795.88;15268527;19;20019;-69
2022/01/15 10:14:42;;;;;;;23.83;8.13;;;;;;;4.86;100.00;102788.53;15268067;19;20021;-69
2022/01/15 10:19:45;;;;;;;17.70;7.32;;;;;;;5.16;100.00;102801.91;15266525;19;20813;-69
2022/01/15 10:24:59;;;;;;;21.27;7.60;;;;;;;5.30;100.00;102792.53;15269575;19;20015;-69
2022/01/15 10:30:08;;;;;;;22.90;7.65;;;;;;;5.40;100.00;102794.97;15267513;19;20175;-69
2022/01/15 10:35:15;;;;;;;22.70;8.25;;;;;;;5.32;100.00;102781.44;15266093;19;20025;-69
2022/01/15 10:40:17;;;;;;;25.15;8.70;;;;;;;5.36;100.00;102799.84;15266092;19;20014;-69
2022/01/15 10:45:18;;;;;;;15.32;7.38;;;;;;;5.25;100.00;102793.88;15267656;19;20015;-68
2022/01/15 10:50:27;;;;;;;19.38;7.65;;;;;;;5.37;100.00;102796.47;15269113;19;20366;-69
2022/01/15 10:55:31;;;;;;;20.23;6.93;;;;;;;5.31;100.00;102786.53;15272636;19;20049;-69
2022/01/15 11:00:35;;;;;;;17.90;6.45;;;;;;;5.19;99.59;102783.06;15269923;19;20460;-67
2022/01/15 11:05:39;;;;;;;16.58;7.35;;;;;;;5.32;99.89;102768.44;15271892;19;20618;-66
2022/01/15 11:10:47;;;;;;;16.25;6.85;;;;;;;5.39;98.50;102768.88;15267016;19;20025;-67
2022/01/15 11:15:54;;;;;;;18.48;7.05;;;;;;;5.44;98.69;102759.72;15271041;19;20010;-68
2022/01/15 11:21:00;;;;;;;23.42;9.32;;;;;;;5.53;98.63;102749.06;15271024;19;20024;-67
2022/01/15 11:26:12;;;;;;;17.73;7.97;;;;;;;5.42;97.75;102748.31;15271531;19;20023;-68
2022/01/15 11:31:25;;;;;;;19.15;7.63;;;;;;;5.46;99.04;102730.47;15262856;19;20019;-67
2022/01/15 11:36:39;;;;;;;18.85;8.95;;;;;;;5.55;99.07;102731.88;15265379;19;20499;-67
2022/01/15 11:41:51;;;;;;;22.98;8.55;;;;;;;5.81;98.73;102721.56;15276458;19;20042;-66
2022/01/15 11:46:54;;;;;;;19.95;8.65;;;;;;;5.73;96.51;102727.03;15264071;19;20017;-66
2022/01/15 11:52:05;;;;;;;22.17;9.43;;;;;;;5.58;94.99;102712.19;15263992;19;20018;-66
2022/01/15 11:57:44;;;;;;;22.73;9.70;;;;;;;5.58;96.06;102700.91;15263122;19;20421;-66
2022/01/15 12:02:58;;;;;;;21.73;7.90;;;;;;;5.57;96.65;102705.22;15262518;19;20544;-66
2022/01/15 12:08:02;;;;;;;20.27;8.57;;;;;;;5.64;96.56;102706.50;15261789;19;20424;-66
2022/01/15 12:13:15;;;;;;;21.00;8.27;;;;;;;5.54;96.07;102697.19;15272900;19;20078;-68
2022/01/15 12:18:20;;;;;;;22.73;9.52;;;;;;;5.60;96.00;102686.28;15277966;19;20024;-66
2022/01/15 12:23:21;;;;;;;25.80;9.02;;;;;;;5.56;97.13;102686.91;15276335;19;20022;-68
2022/01/15 12:28:26;;;;;;;22.13;9.40;;;;;;;5.49;96.67;102668.31;15275934;19;20025;-68
2022/01/15 12:33:30;;;;;;;21.90;7.65;;;;;;;5.49;96.42;102664.78;15277539;19;20010;-69
2022/01/15 12:38:33;;;;;;;22.85;9.32;;;;;;;5.55;97.09;102659.13;15280964;19;20010;-71
2022/01/15 12:43:41;;;;;;;20.95;9.43;;;;;;;5.56;97.55;102655.72;15287746;19;20025;-67
2022/01/15 12:48:45;;;;;;;27.98;11.93;;;;;;;5.46;97.34;102651.59;15278178;19;20082;-68
2022/01/15 12:53:49;;;;;;;27.80;11.00;;;;;;;5.54;97.44;102652.09;15272461;19;20128;-68
2022/01/15 12:58:53;;;;;;;34.67;13.88;;;;;;;5.47;94.60;102653.41;15274385;19;20056;-68
2022/01/15 13:03:54;;;;;;;33.75;14.93;;;;;;;5.38;93.34;102635.50;15275180;19;20010;-68
2022/01/15 13:08:59;;;;;;;26.25;11.98;;;;;;;5.37;91.93;102645.78;15272726;19;20029;-67
2022/01/15 13:14:04;;;;;;;20.02;9.48;;;;;;;5.51;92.20;102641.50;15270415;19;20085;-67
2022/01/15 13:19:07;;;;;;;18.52;8.90;;;;;;;5.30;92.04;102624.56;15272265;19;20351;-68
2022/01/15 13:24:11;;;;;;;19.27;8.32;;;;;;;5.25;92.63;102625.94;15270234;19;20030;-68
2022/01/15 13:29:18;;;;;;;22.92;10.98;;;;;;;5.26;91.95;102625.16;15270321;19;20022;-68
2022/01/15 13:34:29;;;;;;;21.88;10.98;;;;;;;5.27;91.83;102620.88;15268567;19;20710;-68
2022/01/15 13:39:33;;;;;;;36.25;13.35;;;;;;;5.25;92.38;102607.75;15270817;19;20356;-68
2022/01/15 13:44:35;;;;;;;29.48;13.68;;;;;;;5.23;92.24;102598.09;15271068;19;20534;-68
2022/01/15 13:55:06;;;;;;;25.45;11.98;;;;;;;5.26;92.44;102580.09;15271542;19;20102;-68
2022/01/15 14:00:14;;;;;;;26.23;12.48;;;;;;;5.10;92.96;102566.09;15268816;19;20010;-66
2022/01/15 14:05:21;;;;;;;24.45;11.38;;;;;;;5.08;93.38;102549.50;15159500;19;2004417;-68
2022/01/15 14:10:25;;;;;;;23.02;10.65;;;;;;;5.05;93.66;102538.00;15270672;19;20014;-69
2022/01/15 14:15:34;;;;;;;24.42;10.32;;;;;;;5.07;94.53;102532.09;15263978;19;20641;-68
2022/01/15 14:21:40;;;;;;;27.05;11.95;;;;;;;5.03;94.15;102532.72;15267178;19;20014;-68
2022/01/15 14:26:24;;;;;;;22.02;9.95;;;;;;;4.98;94.29;102528.00;15274985;19;20015;-67
2022/01/15 14:31:27;;;;;;;20.92;10.43;;;;;;;5.02;95.24;102520.53;15266722;19;20014;-68
2022/01/15 14:36:29;;;;;;;23.20;10.52;;;;;;;4.98;95.17;102521.09;15268315;19;20022;-68
2022/01/15 14:41:32;;;;;;;21.05;9.70;;;;;;;4.98;94.65;102507.22;15264048;19;20373;-68
2022/01/15 14:46:34;;;;;;;20.85;9.48;;;;;;;4.93;95.42;102504.34;15268992;19;20021;-68
2022/01/15 14:51:36;;;;;;;18.98;8.68;;;;;;;4.80;94.64;102500.00;15268628;19;20012;-68
2022/01/15 14:56:38;;;;;;;20.55;9.02;;;;;;;4.80;95.27;102494.78;15268706;19;20424;-68
2022/01/15 15:01:40;;;;;;;19.42;8.32;;;;;;;4.74;95.11;102495.31;15270011;19;20371;-67
2022/01/15 15:06:43;;;;;;;19.65;9.30;;;;;;;4.73;95.23;102495.19;15268160;19;20034;-68
2022/01/15 15:11:44;;;;;;;21.27;9.18;;;;;;;4.67;95.80;102495.69;15269845;19;20035;-68
2022/01/15 15:16:46;;;;;;;18.55;8.40;;;;;;;4.65;95.93;102492.06;15268673;19;20045;-69
2022/01/15 15:21:48;;;;;;;23.95;11.48;;;;;;;4.56;95.25;102494.94;15269121;19;20015;-68
2022/01/15 15:26:49;;;;;;;24.33;11.10;;;;;;;4.50;95.69;102489.31;15267066;19;20086;-68
2022/01/15 15:31:51;;;;;;;19.35;8.45;;;;;;;4.51;95.68;102487.63;15267639;19;20024;-68
2022/01/15 15:36:53;;;;;;;24.67;9.20;;;;;;;4.51;95.99;102474.66;15269079;19;20018;-68
2022/01/15 15:41:55;;;;;;;24.60;10.20;;;;;;;4.40;95.89;102474.81;15267818;19;20404;-68
2022/01/15 15:46:56;;;;;;;27.75;11.90;;;;;;;4.37;95.73;102468.53;15275503;19;20483;-68
2022/01/15 15:51:59;;;;;;;24.63;10.82;;;;;;;4.37;96.02;102478.91;15281713;19;20022;-68
2022/01/15 15:57:01;;;;;;;25.13;10.82;;;;;;;4.24;96.01;102477.13;15280517;19;20039;-68
2022/01/15 16:02:04;;;;;;;21.58;9.93;;;;;;;4.21;95.70;102479.50;15284849;19;20019;-66
2022/01/15 16:07:06;;;;;;;24.65;9.98;;;;;;;4.14;96.36;102485.94;15278311;19;20377;-68
2022/01/15 16:12:08;;;;;;;22.58;10.63;;;;;;;4.14;96.11;102479.88;15279527;19;20015;-68
2022/01/15 16:17:10;;;;;;;20.10;9.50;;;;;;;4.15;96.66;102484.28;15278980;19;20014;-68
2022/01/15 16:22:15;;;;;;;25.73;9.27;;;;;;;4.22;96.51;102478.72;15279517;19;20014;-68
2022/01/15 16:27:16;;;;;;;24.92;11.38;;;;;;;4.14;96.90;102475.56;15276689;19;20112;-68
2022/01/15 16:32:19;;;;;;;19.33;9.23;;;;;;;4.14;97.19;102478.16;15278977;19;20520;-68
2022/01/15 16:37:20;;;;;;;22.45;10.63;;;;;;;4.18;97.50;102479.31;15278808;19;20021;-68
2022/01/15 16:42:22;;;;;;;21.65;9.40;;;;;;;4.19;97.61;102465.56;15277710;19;20085;-68
2022/01/15 16:47:24;;;;;;;19.70;9.23;;;;;;;4.21;97.78;102457.06;15277177;19;20015;-69
2022/01/15 16:52:26;;;;;;;25.27;11.40;;;;;;;4.19;97.70;102458.66;15275715;19;20086;-68
2022/01/15 16:57:27;;;;;;;30.17;11.80;;;;;;;4.18;97.96;102456.84;15274219;19;20018;-68
2022/01/15 17:02:29;;;;;;;26.88;11.85;;;;;;;4.23;98.07;102455.50;15277405;19;20015;-67
2022/01/15 17:07:31;;;;;;;27.27;12.85;;;;;;;4.17;98.58;102448.97;15276419;19;20022;-68
2022/01/15 17:12:32;;;;;;;28.02;12.50;;;;;;;4.10;98.06;102438.97;15275730;19;20097;-68
2022/01/15 17:17:35;;;;;;;22.10;10.98;;;;;;;4.06;98.05;102441.34;15277118;19;20028;-67
2022/01/15 17:22:38;;;;;;;24.73;11.35;;;;;;;3.90;97.92;102446.22;15275910;19;20018;-67
2022/01/15 17:27:41;;;;;;;23.45;11.43;;;;;;;3.89;98.34;102441.88;15275048;19;20074;-68
2022/01/15 17:32:44;;;;;;;21.35;10.65;;;;;;;3.86;97.90;102433.88;15274044;19;20078;-67
2022/01/15 17:37:46;;;;;;;22.70;12.02;;;;;;;3.80;98.29;102430.81;15274040;19;20097;-67
2022/01/15 17:42:47;;;;;;;23.35;11.18;;;;;;;3.77;98.05;102421.16;15274193;19;20078;-67
2022/01/15 17:47:50;;;;;;;25.27;12.50;;;;;;;3.81;98.58;102417.97;15274530;19;20385;-67
2022/01/15 17:53:05;;;;;;;28.20;13.52;;;;;;;3.78;98.14;102416.88;15271682;19;20013;-68
2022/01/15 17:58:07;;;;;;;27.65;13.55;;;;;;;3.78;98.72;102407.38;15273484;19;20031;-67
2022/01/15 18:03:09;;;;;;;30.90;15.30;;;;;;;3.78;98.86;102402.22;15274751;19;20562;-68
2022/01/15 18:08:10;;;;;;;25.50;12.60;;;;;;;3.69;98.50;102405.06;15270575;19;20010;-68
2022/01/15 18:13:12;;;;;;;22.00;11.70;;;;;;;3.71;98.11;102406.06;15270122;19;20421;-68
2022/01/15 18:18:13;;;;;;;26.42;13.30;;;;;;;3.64;98.00;102401.25;15271089;19;20098;-67
2022/01/15 18:23:15;;;;;;;29.25;14.95;;;;;;;3.61;98.28;102395.84;15278576;19;20082;-69
2022/01/15 18:28:18;;;;;;;26.00;13.40;;;;;;;3.50;98.53;102395.09;15270501;19;20031;-68
2022/01/15 18:33:20;;;;;;;22.17;11.00;;;;;;;3.47;98.06;102383.63;15270782;19;20767;-68
2022/01/15 18:38:21;;;;;;;21.48;10.43;;;;;;;3.42;98.69;102384.97;15270231;19;20014;-68
2022/01/15 18:43:23;;;;;;;25.10;12.80;;;;;;;3.34;98.96;102371.47;15269814;19;20015;-68
2022/01/15 18:48:25;;;;;;;24.50;13.02;;;;;;;3.39;98.72;102380.44;15269662;19;20478;-68
2022/01/15 18:53:28;;;;;;;31.30;15.85;;;;;;;3.32;98.81;102381.72;15272750;19;20066;-68
2022/01/15 18:58:30;;;;;;;30.17;15.15;;;;;;;3.25;98.76;102386.34;15276446;19;20010;-68
2022/01/15 19:03:32;;;;;;;33.35;14.63;;;;;;;3.25;98.92;102423.47;15272755;19;20090;-69
2022/01/15 19:08:34;;;;;;;35.50;17.20;;;;;;;3.23;99.32;102507.91;15269244;19;20502;-68
2022/01/15 19:13:36;;;;;;;31.35;15.25;;;;;;;3.27;99.35;102453.00;15270459;19;20074;-68
2022/01/15 19:18:37;;;;;;;39.53;18.98;;;;;;;3.22;99.42;102420.66;15261261;19;20420;-68
2022/01/15 19:23:40;;;;;;;37.22;19.60;;;;;;;3.18;99.67;102353.91;15267698;19;20085;-68
2022/01/15 19:28:41;;;;;;;30.42;16.38;;;;;;;3.11;99.81;102266.28;15272031;19;20504;-67
2022/01/15 19:33:43;;;;;;;37.92;17.58;;;;;;;3.08;100.00;102243.66;15272637;19;20094;-67
2022/01/15 19:38:45;;;;;;;35.13;17.67;;;;;;;3.14;100.00;102306.22;15260924;19;20022;-68
2022/01/15 19:43:46;;;;;;;37.60;18.17;;;;;;;3.08;100.00;102341.09;15270844;19;20522;-67
2022/01/15 19:48:49;;;;;;;34.72;16.88;;;;;;;3.10;100.00;102343.00;15267829;19;20050;-67
2022/01/15 19:53:51;;;;;;;37.63;19.23;;;;;;;3.04;100.00;102310.63;15266747;19;20027;-67
2022/01/15 19:58:53;;;;;;;42.42;19.98;;;;;;;3.06;100.00;102293.50;15268731;19;20082;-68
2022/01/15 20:03:54;;;;;;;39.40;18.70;;;;;;;3.05;100.00;102277.09;15261072;19;20420;-67
2022/01/15 20:08:56;;;;;;;39.58;20.52;;;;;;;3.08;100.00;102289.31;15263630;19;20464;-67
2022/01/15 20:13:58;;;;;;;40.30;18.55;;;;;;;3.08;100.00;102266.97;15260188;19;20085;-67
2022/01/15 20:18:59;;;;;;;31.25;16.55;;;;;;;3.01;100.00;102288.91;15247512;19;20535;-68
2022/01/15 20:24:01;;;;;;;32.45;17.70;;;;;;;3.00;100.00;102310.41;15263194;19;20026;-67
2022/01/15 20:29:04;;;;;;;34.63;17.42;;;;;;;2.98;100.00;102283.50;15257593;19;20094;-68
2022/01/15 20:34:12;;;;;;;32.58;16.23;;;;;;;2.93;100.00;102294.34;15279061;19;20854;-67
2022/01/15 20:39:14;;;;;;;36.05;17.23;;;;;;;2.96;100.00;102285.09;15281829;19;20028;-68
2022/01/15 20:44:15;;;;;;;35.08;16.77;;;;;;;2.92;100.00;102283.06;15283259;19;20424;-68
2022/01/15 20:49:17;;;;;;;32.88;15.20;;;;;;;2.77;100.00;102292.31;15267669;19;20380;-68
2022/01/15 20:54:19;;;;;;;32.72;15.77;;;;;;;2.68;100.00;102263.19;15275485;19;20017;-68
2022/01/15 20:59:21;;;;;;;34.22;15.95;;;;;;;2.60;100.00;102245.44;15269923;19;20562;-67
2022/01/15 21:04:22;;;;;;;38.92;16.30;;;;;;;2.51;100.00;102228.31;15280660;19;20017;-67
2022/01/15 21:09:24;;;;;;;33.22;17.17;;;;;;;2.57;100.00;102219.34;15275573;19;20031;-67
2022/01/15 21:14:26;;;;;;;35.50;17.75;;;;;;;2.51;100.00;102230.91;15279204;19;20090;-68
2022/01/15 21:19:29;;;;;;;33.47;16.75;;;;;;;2.51;100.00;102226.66;15279162;19;20015;-67
2022/01/15 21:24:31;;;;;;;32.80;15.07;;;;;;;2.50;100.00;102230.03;15261767;19;20018;-67
2022/01/15 21:29:52;;;;;;;31.50;15.27;;;;;;;2.51;100.00;102226.66;15274933;19;20746;-68
2022/01/15 21:34:54;;;;;;;37.10;15.73;;;;;;;2.55;100.00;102202.81;15275611;19;20082;-68
2022/01/15 21:39:56;;;;;;;34.10;15.65;;;;;;;2.54;100.00;102213.94;15264923;19;20014;-67
2022/01/15 21:45:00;;;;;;;29.83;14.80;;;;;;;2.56;100.00;102207.19;15270735;19;20014;-68
2022/01/15 21:50:03;;;;;;;30.50;15.52;;;;;;;2.53;100.00;102213.84;15258980;19;20051;-67
2022/01/15 21:55:05;;;;;;;35.97;17.20;;;;;;;2.37;100.00;102204.97;15274341;19;20010;-66
2022/01/15 22:00:10;;;;;;;30.83;14.93;;;;;;;2.34;100.00;102196.97;15273793;19;20006;-66
2022/01/15 22:05:12;;;;;;;30.55;14.13;;;;;;;2.38;100.00;102204.16;15275527;19;20019;-67
2022/01/15 22:10:14;;;;;;;31.08;12.68;;;;;;;2.14;100.00;102203.28;15272522;19;20034;-67
2022/01/15 22:15:19;;;;;;;34.63;14.50;;;;;;;2.03;100.00;102199.00;15276728;19;20014;-67
2022/01/15 22:20:25;;;;;;;31.65;14.40;;;;;;;2.05;100.00;102187.09;15277077;19;20355;-67
2022/01/15 22:25:27;;;;;;;33.13;15.50;;;;;;;2.11;100.00;102192.72;15278988;19;20109;-67
2022/01/15 22:30:29;;;;;;;37.15;16.35;;;;;;;2.05;100.00;102176.75;15276387;19;20015;-68
2022/01/15 22:35:30;;;;;;;39.03;16.58;;;;;;;2.03;100.00;102158.56;15275450;19;20021;-68
2022/01/15 22:40:32;;;;;;;34.92;15.55;;;;;;;2.12;100.00;102160.91;15273464;19;20006;-66
2022/01/15 22:45:36;;;;;;;40.33;15.80;;;;;;;2.13;100.00;102157.53;15277401;19;20689;-68
2022/01/15 22:50:38;;;;;;;51.30;17.83;;;;;;;2.03;100.00;102157.66;15274676;19;20006;-68
2022/01/15 22:55:40;;;;;;;46.80;16.83;;;;;;;2.04;100.00;102141.34;15271364;19;20566;-68
2022/01/15 23:00:47;;;;;;;55.88;18.75;;;;;;;2.02;100.00;102130.03;15276456;19;20078;-66
2022/01/15 23:05:51;;;;;;;54.33;18.42;;;;;;;1.99;100.00;102119.47;15276606;19;20007;-67
2022/01/15 23:10:56;;;;;;;45.75;16.67;;;;;;;1.94;100.00;102101.94;15271413;19;20624;-67
2022/01/15 23:16:07;;;;;;;39.72;16.67;;;;;;;1.96;100.00;102129.56;15271490;19;20113;-67
2022/01/15 23:21:09;;;;;;;38.83;15.25;;;;;;;1.88;100.00;102111.81;15272612;19;20748;-68
2022/01/15 23:26:10;;;;;;;37.35;16.20;;;;;;;1.89;100.00;102113.63;15275407;19;20186;-67